Nurata, Uzbekistan
Current Conditions -  °F | °C
As of 9:30 PM on Tuesday 21 Oct 2014 (Local Time) from UTSA Reporting Station
Smoke Smoke  
Wind Chill: 57°   Ceiling: Unl
Heat Index: 57°   Visibility: 3mi
Dew Point: 43°   Wind: 4mph
Humidity: 59%   Direction: 60°ENE
Pressure: 30.03"   Gusts: NA
Location:  40.56°N, 65.68°E
Report Text: UTSA 211630Z 06002MPS 5000 FU NSC 14/06 Q1017 R25/CLRD70 NOSIG
Loading
Personal Weather Stations






























Interactive Weather Map
Tropical Storm Tracking
New forecast layout! Learn more

10-Day Weather Forecast

Advertisements
Track Severe Weather on mobile